createdAt,value
2023-03-29T00:00:27.083Z,6.8412
2023-03-29T00:01:35.965Z,6.8261
2023-03-29T00:02:33.708Z,6.7126
2023-03-29T00:03:36.399Z,6.5673
2023-03-29T00:05:41.232Z,6.3785
2023-03-29T00:06:43.791Z,6.2579
2023-03-29T00:08:48.593Z,6.0922
2023-03-29T00:09:51.073Z,6.0584
2023-03-29T00:10:53.616Z,6.1036
2023-03-29T00:11:56.140Z,6.1213
2023-03-29T00:14:00.996Z,6.4792
2023-03-29T00:15:03.436Z,6.4418
2023-03-29T00:16:05.999Z,6.3994
2023-03-29T00:17:08.544Z,6.5045
2023-03-29T00:18:11.206Z,6.5593
2023-03-29T00:19:13.694Z,6.5677
2023-03-29T00:20:16.241Z,6.6720
2023-03-29T00:22:21.040Z,6.6628
2023-03-29T00:23:23.528Z,6.7678
2023-03-29T00:25:28.413Z,6.8248
2023-03-29T00:26:30.861Z,6.8009
2023-03-29T00:27:33.349Z,6.8360
2023-03-29T00:28:35.901Z,6.5835
2023-03-29T00:30:40.722Z,6.7647
2023-03-29T00:31:43.211Z,6.8381
2023-03-29T00:33:48.070Z,7.1405
2023-03-29T00:34:50.593Z,7.5414
2023-03-29T00:35:53.089Z,7.2889
2023-03-29T00:36:55.605Z,7.1155
2023-03-29T00:37:58.132Z,7.1221
2023-03-29T00:39:00.615Z,7.1048
2023-03-29T00:40:03.131Z,7.3358
2023-03-29T00:42:07.921Z,7.0180
2023-03-29T00:43:10.371Z,7.0855
2023-03-29T00:45:15.234Z,7.4334
2023-03-29T00:47:20.166Z,7.4102
2023-03-29T00:48:22.624Z,7.2805
2023-03-29T00:50:27.478Z,7.3239
2023-03-29T00:51:29.967Z,7.2396
2023-03-29T00:52:32.437Z,7.1855
2023-03-29T00:53:34.914Z,7.0481
2023-03-29T00:54:37.440Z,7.0188
2023-03-29T00:55:39.948Z,7.1738
2023-03-29T00:56:42.590Z,7.2906
2023-03-29T00:58:47.398Z,7.5084
2023-03-29T00:59:49.848Z,7.4962
2023-03-29T01:00:52.435Z,7.2406
2023-03-29T01:01:55.232Z,7.2641
2023-03-29T01:02:58.264Z,7.6144
2023-03-29T01:05:03.192Z,7.6371
2023-03-29T01:06:05.752Z,7.7089
2023-03-29T01:08:10.617Z,7.5738
2023-03-29T01:09:13.153Z,7.5671
2023-03-29T01:10:15.685Z,7.6658
2023-03-29T01:11:18.188Z,7.6295
2023-03-29T01:13:23.168Z,7.6062
2023-03-29T01:14:25.670Z,7.4409
2023-03-29T01:15:28.258Z,7.4928
2023-03-29T01:16:30.812Z,7.4701
2023-03-29T01:19:38.202Z,7.4235
2023-03-29T01:21:43.128Z,7.6644
2023-03-29T01:22:45.723Z,7.6768
2023-03-29T01:24:50.587Z,7.7348
2023-03-29T01:25:53.130Z,7.6585
2023-03-29T01:26:55.636Z,7.5841
2023-03-29T01:27:58.145Z,7.5900
2023-03-29T01:29:00.690Z,7.6125
2023-03-29T01:30:03.172Z,7.5725
2023-03-29T01:31:05.734Z,7.5170
2023-03-29T01:33:10.624Z,7.7056
2023-03-29T01:34:13.189Z,7.7739
2023-03-29T01:35:15.668Z,7.6955
2023-03-29T01:36:18.274Z,7.5532
2023-03-29T01:37:20.838Z,7.5332
2023-03-29T01:38:23.404Z,7.5982
2023-03-29T01:39:25.871Z,7.4439
2023-03-29T01:41:30.752Z,7.7085
2023-03-29T01:42:33.296Z,7.6875
2023-03-29T01:43:35.900Z,7.5175
2023-03-29T01:44:38.435Z,7.5288
2023-03-29T01:45:40.892Z,7.5645
2023-03-29T01:46:43.439Z,7.5179
2023-03-29T01:47:46.060Z,7.5111
2023-03-29T01:49:50.939Z,7.4638
2023-03-29T01:50:53.547Z,7.3587
2023-03-29T01:51:56.101Z,7.3156
2023-03-29T01:52:58.640Z,7.2532
2023-03-29T01:55:03.490Z,7.1628
2023-03-29T01:56:05.959Z,7.2255
2023-03-29T01:57:08.498Z,7.3522
2023-03-29T01:58:10.953Z,7.2280
2023-03-29T01:59:13.508Z,7.2930
2023-03-29T02:00:16.066Z,7.1967
2023-03-29T02:01:18.600Z,7.3592
2023-03-29T02:02:21.169Z,7.2723
2023-03-29T02:03:23.794Z,7.2078
2023-03-29T02:04:26.406Z,7.1015
2023-03-29T02:06:31.272Z,7.2429
2023-03-29T02:08:36.087Z,7.1967
2023-03-29T02:09:38.635Z,7.3362
2023-03-29T02:10:41.113Z,7.2370
2023-03-29T02:11:43.578Z,7.1693
2023-03-29T02:12:46.166Z,7.0651
2023-03-29T02:13:48.713Z,7.2663
2023-03-29T02:14:51.200Z,7.2742
2023-03-29T02:15:53.748Z,7.2320
2023-03-29T02:17:58.619Z,7.0171
2023-03-29T02:19:01.392Z,7.0735
2023-03-29T02:20:03.846Z,7.1496
2023-03-29T02:21:06.402Z,6.9656
2023-03-29T02:22:08.891Z,6.9472
2023-03-29T02:23:11.433Z,6.8421
2023-03-29T02:25:16.278Z,6.9951
2023-03-29T02:26:18.790Z,7.1643
2023-03-29T02:27:21.332Z,7.2501
2023-03-29T02:28:23.790Z,7.2379
2023-03-29T02:29:26.336Z,7.1376
2023-03-29T02:31:31.269Z,7.1384
2023-03-29T02:33:36.089Z,7.1956
2023-03-29T02:34:38.672Z,7.2147
2023-03-29T02:36:43.552Z,7.2633
2023-03-29T02:37:46.061Z,7.0995
2023-03-29T02:38:48.563Z,7.1006
2023-03-29T02:39:51.085Z,7.2087
2023-03-29T02:41:55.934Z,7.3571
2023-03-29T02:42:58.416Z,7.3575
2023-03-29T02:44:00.990Z,7.0747
2023-03-29T02:45:03.538Z,6.8515
2023-03-29T02:47:08.390Z,6.8935
2023-03-29T02:49:13.266Z,6.9537
2023-03-29T02:50:15.796Z,6.8523
2023-03-29T02:51:20.016Z,7.0027
2023-03-29T02:52:18.413Z,6.9819
2023-03-29T02:53:21.067Z,7.1485
2023-03-29T02:54:23.565Z,7.2770
2023-03-29T02:55:26.163Z,7.5109
2023-03-29T02:56:28.680Z,7.1103
2023-03-29T02:57:31.198Z,7.0357
2023-03-29T02:58:33.753Z,6.9547
2023-03-29T02:59:36.255Z,6.9272
2023-03-29T03:00:38.836Z,6.9385
2023-03-29T03:01:41.331Z,6.8883
2023-03-29T03:03:46.374Z,6.8559
2023-03-29T03:04:48.966Z,7.0138
2023-03-29T03:06:53.851Z,7.1517
2023-03-29T03:07:56.387Z,7.1515
2023-03-29T03:08:58.905Z,7.2330
2023-03-29T03:10:01.469Z,7.2169
2023-03-29T03:11:04.226Z,7.1021
2023-03-29T03:13:09.520Z,7.2976
2023-03-29T03:14:12.022Z,7.3066
2023-03-29T03:15:14.573Z,7.2004
2023-03-29T03:16:17.070Z,7.1468
2023-03-29T03:18:21.930Z,6.9755
2023-03-29T03:19:24.468Z,7.0628
2023-03-29T03:20:27.076Z,7.0418
2023-03-29T03:21:29.596Z,7.1193
2023-03-29T03:23:34.610Z,7.0150
2023-03-29T03:24:37.114Z,6.9472
2023-03-29T03:25:39.653Z,6.9921
2023-03-29T03:26:42.138Z,6.9873
2023-03-29T03:31:54.349Z,8.0867
2023-03-29T03:32:57.156Z,7.8531
2023-03-29T03:33:59.684Z,7.5113
2023-03-29T03:35:02.237Z,7.4979
2023-03-29T03:36:04.830Z,7.4945
2023-03-29T03:37:07.336Z,7.4449
2023-03-29T03:38:09.894Z,7.1515
2023-03-29T03:39:12.394Z,7.1063
2023-03-29T03:40:14.949Z,7.3301
2023-03-29T03:41:17.415Z,7.2831
2023-03-29T03:42:19.957Z,7.4084
2023-03-29T03:43:22.610Z,7.1548
2023-03-29T03:45:27.626Z,7.2030
2023-03-29T03:47:32.661Z,7.1956
2023-03-29T03:48:35.143Z,7.0260
2023-03-29T03:49:37.641Z,6.8343
2023-03-29T03:50:40.115Z,6.7248
2023-03-29T03:51:42.642Z,6.7346
2023-03-29T03:52:45.219Z,6.6548
2023-03-29T03:53:47.706Z,6.6949
2023-03-29T03:54:50.245Z,6.5871
2023-03-29T03:55:52.852Z,6.4942
2023-03-29T03:56:55.401Z,6.5957
2023-03-29T03:57:57.959Z,6.6665
2023-03-29T03:59:00.550Z,6.6114
2023-03-29T04:00:03.141Z,6.5421
2023-03-29T04:01:05.584Z,7.1115
2023-03-29T04:02:08.138Z,7.2910
2023-03-29T04:04:13.047Z,7.1920
2023-03-29T04:05:15.493Z,6.9505
2023-03-29T04:06:18.086Z,6.7998
2023-03-29T04:07:20.592Z,7.2059
2023-03-29T04:08:23.171Z,7.3383
2023-03-29T04:10:27.982Z,6.9274
2023-03-29T04:11:30.481Z,6.8362
2023-03-29T04:12:33.033Z,6.9785
2023-03-29T04:13:35.576Z,7.6654
2023-03-29T04:15:40.398Z,7.3327
2023-03-29T04:16:42.964Z,7.2570
2023-03-29T04:18:47.829Z,7.5317
2023-03-29T04:19:50.376Z,7.3436
2023-03-29T04:20:52.947Z,7.3966
2023-03-29T04:21:55.390Z,7.2999
2023-03-29T04:22:57.887Z,7.3638
2023-03-29T04:25:02.715Z,7.4264
2023-03-29T04:26:05.266Z,7.5006
2023-03-29T04:28:10.209Z,7.8426
2023-03-29T04:29:12.724Z,7.7916
2023-03-29T04:30:15.229Z,7.8250
2023-03-29T04:31:17.782Z,7.7832
2023-03-29T04:32:20.277Z,7.5006
2023-03-29T04:33:22.776Z,7.6465
2023-03-29T04:34:25.264Z,7.5212
2023-03-29T04:35:27.739Z,7.6513
2023-03-29T04:37:32.646Z,7.3777
2023-03-29T04:38:35.153Z,7.2932
2023-03-29T04:39:37.647Z,7.3165
2023-03-29T04:40:40.141Z,7.4649
2023-03-29T04:42:44.976Z,7.3819
2023-03-29T04:43:47.509Z,7.5961
2023-03-29T04:44:50.080Z,7.5671
2023-03-29T04:45:52.656Z,7.5540
2023-03-29T04:46:55.358Z,7.7468
2023-03-29T04:47:57.912Z,7.4762
2023-03-29T04:49:00.479Z,7.2866
2023-03-29T04:50:02.964Z,7.3098
2023-03-29T04:51:05.482Z,7.4174
2023-03-29T04:52:08.014Z,7.7850
2023-03-29T04:53:10.528Z,8.0940
2023-03-29T04:54:13.088Z,8.1353
2023-03-29T04:55:15.649Z,8.3267
2023-03-29T04:56:18.091Z,8.3118
2023-03-29T04:57:20.685Z,8.4894
2023-03-29T04:59:25.508Z,8.2998
2023-03-29T05:00:28.064Z,8.4375
2023-03-29T05:01:30.587Z,8.4432
2023-03-29T05:02:33.146Z,8.3360
2023-03-29T05:03:35.766Z,8.2752
2023-03-29T05:05:40.584Z,8.3383
2023-03-29T05:06:43.170Z,8.3646
2023-03-29T05:07:45.717Z,8.4560
2023-03-29T05:08:48.172Z,8.3282
2023-03-29T05:09:50.684Z,8.4047
2023-03-29T05:10:53.173Z,8.5809
2023-03-29T05:11:55.727Z,8.6557
2023-03-29T05:14:00.509Z,8.6666
2023-03-29T05:18:10.266Z,8.4497
2023-03-29T05:19:12.810Z,8.5853
2023-03-29T05:20:15.458Z,8.5782
2023-03-29T05:22:20.300Z,8.4668
2023-03-29T05:24:25.073Z,8.3925
2023-03-29T05:25:27.865Z,8.4283
2023-03-29T05:26:30.363Z,8.3295
2023-03-29T05:27:33.021Z,8.3040
2023-03-29T05:28:35.576Z,8.2658
2023-03-29T05:29:38.112Z,8.3534
2023-03-29T05:30:40.599Z,8.3654
2023-03-29T05:31:43.173Z,8.4926
2023-03-29T05:32:45.739Z,8.6345
2023-03-29T05:33:48.188Z,8.5403
2023-03-29T05:35:53.114Z,8.5815
2023-03-29T05:36:55.571Z,8.6025
2023-03-29T05:37:58.092Z,8.1123
2023-03-29T05:40:05.825Z,8.0604
2023-03-29T05:41:04.589Z,8.3587
2023-03-29T05:43:09.596Z,8.4359
2023-03-29T05:44:12.139Z,8.5122
2023-03-29T05:45:14.677Z,8.5010
2023-03-29T05:46:17.234Z,8.4655
2023-03-29T05:47:19.944Z,8.2666
2023-03-29T05:49:24.812Z,8.1872
2023-03-29T05:50:27.330Z,8.2164
2023-03-29T05:52:32.204Z,8.2820
2023-03-29T05:53:34.684Z,8.2103
2023-03-29T05:55:39.466Z,8.0352
2023-03-29T05:56:41.995Z,8.0755
2023-03-29T05:58:46.845Z,8.1577
2023-03-29T05:59:49.283Z,8.0777
2023-03-29T06:00:51.803Z,8.2082
2023-03-29T06:01:54.383Z,8.1018
2023-03-29T06:03:03.654Z,8.1128
2023-03-29T06:05:03.156Z,8.1275
2023-03-29T06:06:05.743Z,8.1594
2023-03-29T06:07:08.192Z,8.1657
2023-03-29T06:08:10.742Z,8.0875
2023-03-29T06:09:13.263Z,8.0827
2023-03-29T06:10:15.757Z,8.0581
2023-03-29T06:11:18.302Z,8.3692
2023-03-29T06:20:39.535Z,8.8054
2023-03-29T06:22:44.328Z,8.9590
2023-03-29T06:23:46.765Z,9.1045
2023-03-29T06:24:49.410Z,9.0278
2023-03-29T06:25:51.871Z,9.0799
2023-03-29T06:27:56.795Z,9.1064
2023-03-29T06:28:59.247Z,9.0757
2023-03-29T06:30:01.744Z,9.0629
2023-03-29T06:31:04.468Z,9.0190
2023-03-29T06:32:07.596Z,9.0003
2023-03-29T06:34:12.371Z,8.9422
2023-03-29T06:35:14.855Z,9.1676
2023-03-29T06:37:19.712Z,9.1196
2023-03-29T06:38:22.148Z,9.2088
2023-03-29T06:39:24.621Z,9.2470
2023-03-29T06:40:27.078Z,9.1966
2023-03-29T06:41:29.542Z,9.2321
2023-03-29T06:42:31.961Z,9.3061
2023-03-29T06:44:36.661Z,9.3124
2023-03-29T06:46:41.516Z,9.4778
2023-03-29T06:47:43.986Z,9.4118
2023-03-29T06:48:46.427Z,9.4337
2023-03-29T06:49:48.869Z,9.4388
2023-03-29T06:50:51.369Z,9.4221
2023-03-29T06:52:56.153Z,9.5565
2023-03-29T06:53:58.586Z,9.3629
2023-03-29T06:55:01.110Z,9.3372
2023-03-29T06:56:03.559Z,9.4938
2023-03-29T06:57:06.058Z,9.4310
2023-03-29T06:58:08.514Z,9.4688
2023-03-29T06:59:10.969Z,9.5415
2023-03-29T07:00:13.444Z,9.5762
2023-03-29T07:01:16.011Z,9.6351
2023-03-29T07:02:18.486Z,9.6288
2023-03-29T07:04:23.270Z,9.6744
2023-03-29T07:05:25.726Z,9.7024
2023-03-29T07:06:28.164Z,9.6489
2023-03-29T07:07:30.617Z,9.6143
2023-03-29T07:08:33.050Z,9.5634
2023-03-29T07:09:35.559Z,9.5342
2023-03-29T07:10:38.031Z,8.9906
2023-03-29T07:12:42.770Z,8.2374
2023-03-29T07:13:45.193Z,8.3564
2023-03-29T07:14:47.647Z,8.3433
2023-03-29T07:15:50.105Z,8.1724
2023-03-29T07:17:54.895Z,7.8149
2023-03-29T07:18:57.338Z,7.8325
2023-03-29T07:19:58.420Z,7.7334
2023-03-29T07:22:03.161Z,7.8824
2023-03-29T07:23:05.571Z,7.9498
2023-03-29T07:24:08.063Z,8.1777
2023-03-29T07:25:10.540Z,8.3165
2023-03-29T07:26:13.026Z,8.3110
2023-03-29T07:27:15.413Z,8.3614
2023-03-29T07:28:17.879Z,8.1893
2023-03-29T07:29:20.359Z,8.1718
2023-03-29T07:30:22.821Z,8.4457
2023-03-29T07:31:25.278Z,8.2515
2023-03-29T07:32:27.825Z,8.2076
2023-03-29T07:34:32.656Z,8.2706
2023-03-29T07:35:35.193Z,8.2485
2023-03-29T07:37:39.922Z,8.2736
2023-03-29T07:38:42.330Z,8.2599
2023-03-29T07:39:44.773Z,8.3249
2023-03-29T07:40:47.233Z,8.1985
2023-03-29T07:42:52.635Z,8.3764
2023-03-29T07:43:55.039Z,8.9416
2023-03-29T07:44:57.477Z,8.6259
2023-03-29T07:45:59.950Z,8.3844
2023-03-29T07:47:02.352Z,8.5513
2023-03-29T07:48:04.932Z,8.7449
2023-03-29T07:49:07.352Z,9.0414
2023-03-29T07:50:09.795Z,9.3002
2023-03-29T07:51:12.206Z,9.0629
2023-03-29T07:52:14.627Z,8.9786
2023-03-29T07:53:17.055Z,9.0635
2023-03-29T07:54:19.538Z,9.0272
2023-03-29T07:55:22.035Z,8.9218
2023-03-29T07:56:24.458Z,9.0375
2023-03-29T07:57:27.219Z,9.1735
2023-03-29T07:59:32.063Z,9.2962
2023-03-29T08:00:34.555Z,9.5453
2023-03-29T08:02:39.170Z,9.4787
2023-03-29T08:03:41.654Z,9.2630
2023-03-29T08:05:46.369Z,9.2870
2023-03-29T08:06:48.774Z,9.2662
2023-03-29T08:07:51.236Z,9.2531
2023-03-29T08:08:53.633Z,9.2119
2023-03-29T08:09:56.031Z,9.3341
2023-03-29T08:10:58.476Z,9.5134
2023-03-29T08:12:00.914Z,9.5327
2023-03-29T08:13:03.330Z,9.6256
2023-03-29T08:14:05.774Z,9.2763
2023-03-29T08:16:10.442Z,9.0007
2023-03-29T08:17:12.941Z,8.8722
2023-03-29T08:19:17.711Z,9.0320
2023-03-29T08:20:20.173Z,9.0223
2023-03-29T08:22:24.843Z,8.9706
2023-03-29T08:24:29.545Z,9.0486
2023-03-29T08:25:32.044Z,9.0749
2023-03-29T08:26:34.431Z,8.8996
2023-03-29T08:27:36.902Z,8.8626
2023-03-29T08:29:41.824Z,8.9517
2023-03-29T08:31:46.526Z,9.2966
2023-03-29T08:32:51.078Z,9.4638
2023-03-29T08:33:51.082Z,9.7013
2023-03-29T08:35:55.825Z,9.5844
2023-03-29T08:38:00.507Z,9.5699
2023-03-29T08:39:02.979Z,9.5888
2023-03-29T08:40:05.372Z,9.7185
2023-03-29T08:41:07.839Z,9.6803
2023-03-29T08:42:10.218Z,9.8007
2023-03-29T08:43:12.676Z,9.7658
2023-03-29T08:44:15.056Z,10.2192
2023-03-29T08:46:19.802Z,10.0132
2023-03-29T08:47:22.247Z,10.4942
2023-03-29T08:49:26.931Z,10.3256
2023-03-29T08:51:31.524Z,10.4667
2023-03-29T08:52:33.993Z,10.2747
2023-03-29T08:53:36.391Z,10.3037
2023-03-29T08:54:38.900Z,10.7015
2023-03-29T08:55:41.386Z,10.6868
2023-03-29T08:57:46.019Z,10.7069
2023-03-29T08:58:48.384Z,10.8843
2023-03-29T08:59:50.810Z,11.0082
2023-03-29T09:00:53.233Z,10.9966
2023-03-29T09:02:58.313Z,11.2001
2023-03-29T09:04:00.902Z,11.1896
2023-03-29T09:06:05.568Z,11.2020
2023-03-29T09:08:10.351Z,11.3657
2023-03-29T09:09:12.776Z,11.6556
2023-03-29T09:11:17.529Z,11.3487
2023-03-29T09:12:19.989Z,11.3767
2023-03-29T09:13:22.387Z,11.3478
2023-03-29T09:14:24.835Z,11.2852
2023-03-29T09:15:27.260Z,11.4693
2023-03-29T09:16:29.763Z,11.1379
2023-03-29T09:17:32.218Z,11.1027
2023-03-29T09:18:34.688Z,10.9613
2023-03-29T09:19:37.072Z,11.1831
2023-03-29T09:20:39.537Z,10.9163
2023-03-29T09:21:41.986Z,10.6449
2023-03-29T09:22:44.376Z,10.9583
2023-03-29T09:24:49.110Z,10.8791
2023-03-29T09:25:54.202Z,10.7872
2023-03-29T09:26:52.221Z,10.5691
2023-03-29T09:27:54.675Z,10.8957
2023-03-29T09:28:57.173Z,11.1404
2023-03-29T09:29:59.560Z,11.0096
2023-03-29T09:31:02.270Z,11.0027
2023-03-29T09:32:04.868Z,10.9394
2023-03-29T09:33:07.363Z,11.0681
2023-03-29T09:34:09.781Z,10.7343
2023-03-29T09:36:14.604Z,10.4150
2023-03-29T09:37:17.004Z,10.4419
2023-03-29T09:38:19.516Z,10.3248
2023-03-29T09:39:21.942Z,10.5022
2023-03-29T09:41:26.646Z,10.5552
2023-03-29T09:42:29.073Z,10.5531
2023-03-29T09:43:31.536Z,10.6397
2023-03-29T09:44:33.936Z,10.7473
2023-03-29T09:46:38.651Z,10.6205
2023-03-29T09:47:41.141Z,10.5802
2023-03-29T09:48:43.597Z,11.1086
2023-03-29T09:49:46.102Z,11.0266
2023-03-29T09:50:48.530Z,10.9939
2023-03-29T09:52:53.268Z,11.0767
2023-03-29T09:53:55.752Z,11.2541
2023-03-29T09:56:00.533Z,11.0574
2023-03-29T09:57:03.058Z,11.0229
2023-03-29T09:58:05.468Z,11.1591
2023-03-29T09:59:07.918Z,11.1568
2023-03-29T10:00:10.352Z,11.3863
2023-03-29T10:01:12.856Z,11.5724
2023-03-29T10:03:17.504Z,11.8578
2023-03-29T10:04:19.981Z,11.7439
2023-03-29T10:06:24.638Z,11.7912
2023-03-29T10:07:27.082Z,11.7769
2023-03-29T10:08:29.483Z,11.6814
2023-03-29T10:09:32.074Z,12.1231
2023-03-29T10:10:34.481Z,11.8961
2023-03-29T10:11:37.022Z,12.1120
2023-03-29T10:12:39.454Z,12.4744
2023-03-29T10:13:41.834Z,12.1908
2023-03-29T10:15:46.494Z,12.5164
2023-03-29T10:16:49.013Z,12.6245
2023-03-29T10:18:53.638Z,12.2004
2023-03-29T10:19:56.061Z,12.5994
2023-03-29T10:20:58.461Z,12.7556
2023-03-29T10:22:00.867Z,13.0423
2023-03-29T10:23:03.307Z,13.4279
2023-03-29T10:24:05.681Z,12.7901
2023-03-29T10:25:08.087Z,12.8746
2023-03-29T10:27:12.740Z,12.7420
2023-03-29T10:28:15.119Z,12.7918
2023-03-29T10:29:17.554Z,13.0373
2023-03-29T10:30:19.945Z,13.2195
2023-03-29T10:31:22.378Z,13.2080
2023-03-29T10:32:24.857Z,13.2631
2023-03-29T10:33:27.197Z,12.8822
2023-03-29T10:34:29.670Z,13.0295
2023-03-29T10:35:32.112Z,13.5550
2023-03-29T10:36:34.510Z,13.3431
2023-03-29T10:37:36.864Z,13.6385
2023-03-29T10:39:41.486Z,14.9004
2023-03-29T10:40:43.801Z,14.0349
2023-03-29T10:41:46.187Z,14.3009
2023-03-29T10:42:48.527Z,14.9411
2023-03-29T10:43:51.149Z,14.8487
2023-03-29T10:44:54.337Z,13.2914
2023-03-29T16:02:32.911Z,16.6736
2023-03-29T16:03:33.139Z,16.7225
2023-03-29T16:04:33.414Z,16.8137
2023-03-29T16:05:33.618Z,16.6564
2023-03-29T16:06:33.795Z,16.4603
2023-03-29T16:07:34.047Z,16.0267
2023-03-29T16:08:34.275Z,15.9771
2023-03-29T16:09:34.445Z,16.1623
2023-03-29T16:10:34.653Z,16.0735
2023-03-29T16:11:34.854Z,16.0895
2023-03-29T16:12:35.045Z,15.9691
2023-03-29T16:13:35.271Z,15.4439
2023-03-29T16:14:35.404Z,14.9920
2023-03-29T16:15:35.650Z,14.9346
2023-03-29T16:16:36.987Z,14.6736
2023-03-29T16:17:37.248Z,14.4926
2023-03-29T16:18:37.463Z,14.3901
2023-03-29T16:19:37.749Z,14.3023
2023-03-29T16:21:37.987Z,14.1523
2023-03-29T16:22:38.239Z,14.1405
2023-03-29T16:23:38.442Z,14.3398
2023-03-29T16:24:38.638Z,14.1743
2023-03-29T16:25:38.852Z,14.2365
2023-03-29T16:26:39.124Z,14.2738
2023-03-29T16:27:39.288Z,14.2857
2023-03-29T16:28:39.498Z,14.2630
2023-03-29T16:29:39.700Z,14.1139
2023-03-29T16:30:39.906Z,14.1408
2023-03-29T16:31:40.331Z,14.2091
2023-03-29T16:32:40.750Z,14.0652
2023-03-29T16:33:41.003Z,14.0106
2023-03-29T16:34:41.514Z,14.0663
2023-03-29T16:35:42.016Z,14.0589
2023-03-29T16:36:42.170Z,13.8753
2023-03-29T16:37:42.391Z,13.7026
2023-03-29T16:38:42.585Z,13.5946
2023-03-29T16:39:42.825Z,13.4796
2023-03-29T16:40:43.005Z,13.3498
2023-03-29T16:41:43.198Z,13.1121
2023-03-29T16:42:43.419Z,13.0123
2023-03-29T16:43:43.615Z,13.0225
2023-03-29T16:44:43.847Z,12.9692
2023-03-29T16:45:44.026Z,12.9159
2023-03-29T16:46:44.234Z,12.8050
2023-03-29T16:47:44.567Z,12.7938
2023-03-29T16:48:44.857Z,12.7909
2023-03-29T16:49:45.953Z,12.6848
2023-03-29T16:50:46.228Z,12.6712
2023-03-29T16:51:46.451Z,12.7118
2023-03-29T16:52:46.702Z,12.6356
2023-03-29T16:53:46.915Z,12.6010
2023-03-29T16:54:47.133Z,12.5598
2023-03-29T16:55:47.352Z,12.5872
2023-03-29T16:56:47.593Z,12.5528
2023-03-29T16:57:47.757Z,12.4199
2023-03-29T16:58:48.022Z,12.5573
2023-03-29T16:59:48.288Z,12.5524
2023-03-29T17:00:48.697Z,12.3597
2023-03-29T17:01:48.926Z,12.4621
2023-03-29T17:02:49.229Z,12.7540
2023-03-29T17:03:49.532Z,12.5982
2023-03-29T17:04:49.931Z,12.4891
2023-03-29T17:05:50.258Z,12.5515
2023-03-29T17:06:50.694Z,12.5635
2023-03-29T17:07:50.899Z,12.6632
2023-03-29T17:08:51.136Z,12.5191
2023-03-29T17:09:51.371Z,12.3395
2023-03-29T17:10:51.596Z,12.4811
2023-03-29T17:11:52.819Z,12.3215
2023-03-29T17:12:53.164Z,12.3598
2023-03-29T17:13:53.499Z,12.2577
2023-03-29T17:14:53.825Z,12.3010
2023-03-29T17:15:54.109Z,12.3645
2023-03-29T17:16:54.339Z,12.3222
2023-03-29T17:17:54.591Z,12.2055
2023-03-29T17:18:54.837Z,11.9641
2023-03-29T17:19:55.192Z,12.2365
2023-03-29T17:20:55.460Z,12.2407
2023-03-29T17:21:55.667Z,12.1536
2023-03-29T17:22:55.973Z,12.1664
2023-03-29T17:23:56.240Z,12.1276
2023-03-29T17:24:56.573Z,12.1099
2023-03-29T17:25:56.778Z,12.1109
2023-03-29T17:26:57.048Z,11.8934
2023-03-29T17:27:57.293Z,12.0839
2023-03-29T17:28:57.503Z,12.3562
2023-03-29T17:30:57.889Z,12.1873
2023-03-29T17:31:58.082Z,12.0232
2023-03-29T17:32:58.299Z,12.1886
2023-03-29T17:33:58.565Z,12.1875
2023-03-29T17:34:58.792Z,11.9764
2023-03-29T17:35:59.288Z,11.9034
2023-03-29T17:36:59.743Z,11.9772
2023-03-29T17:37:59.957Z,11.9307
2023-03-29T17:39:02.364Z,12.2877
2023-03-29T17:40:00.616Z,12.0140
2023-03-29T17:41:00.930Z,11.8365
2023-03-29T17:42:01.168Z,11.8661
2023-03-29T17:43:01.592Z,11.8957
2023-03-29T17:44:01.964Z,11.6234
2023-03-29T17:45:02.205Z,11.7491
2023-03-29T17:46:02.611Z,11.7073
2023-03-29T17:47:03.361Z,11.5475
2023-03-29T17:48:06.246Z,11.5647
2023-03-29T17:49:04.656Z,11.5990
2023-03-29T17:50:05.272Z,11.5473
2023-03-29T17:51:05.625Z,11.5977
2023-03-29T17:52:05.834Z,11.6966
2023-03-29T17:53:06.179Z,11.8255
2023-03-29T17:54:06.480Z,11.7173
2023-03-29T17:55:06.664Z,11.8651
2023-03-29T17:56:06.942Z,11.8190
2023-03-29T17:57:07.171Z,11.6901
2023-03-29T17:58:07.406Z,11.7445
2023-03-29T17:59:07.642Z,11.4752
2023-03-29T18:00:07.938Z,11.3229
2023-03-29T18:01:08.519Z,11.4345
2023-03-29T18:02:08.841Z,11.5615
2023-03-29T18:03:09.071Z,11.4819
2023-03-29T18:04:09.476Z,11.4799
2023-03-29T18:05:09.700Z,11.4608
2023-03-29T18:06:09.916Z,11.4580
2023-03-29T18:07:10.093Z,11.4396
2023-03-29T18:08:10.328Z,11.4895
2023-03-29T18:09:10.520Z,11.5200
2023-03-29T18:10:10.951Z,11.5718
2023-03-29T18:11:11.231Z,11.6199
2023-03-29T18:12:11.481Z,11.5557
2023-03-29T18:13:11.832Z,11.5851
2023-03-29T18:14:12.053Z,11.4975
2023-03-29T18:15:12.251Z,11.3879
2023-03-29T18:16:12.487Z,11.6684
2023-03-29T18:17:12.734Z,11.7816
2023-03-29T18:18:12.910Z,11.7304
2023-03-29T18:19:13.182Z,11.6260
2023-03-29T18:20:13.428Z,11.7462
2023-03-29T18:21:13.715Z,11.7532
2023-03-29T18:22:14.555Z,11.8632
2023-03-29T18:23:15.074Z,11.8955
2023-03-29T18:24:15.478Z,11.8351
2023-03-29T18:25:15.795Z,11.7597
2023-03-29T18:26:16.272Z,11.7303
2023-03-29T18:27:16.536Z,11.5505
2023-03-29T18:28:16.729Z,11.6034
2023-03-29T18:29:17.014Z,11.4751
2023-03-29T18:30:17.292Z,11.5090
2023-03-29T18:31:17.739Z,11.5474
2023-03-29T18:32:18.047Z,11.7692
2023-03-29T18:33:18.328Z,11.8848
2023-03-29T18:34:18.541Z,11.7718
2023-03-29T18:35:18.818Z,11.6895
2023-03-29T18:36:19.074Z,11.8209
2023-03-29T18:37:19.643Z,11.6346
2023-03-29T18:38:19.933Z,11.5778
2023-03-29T18:39:20.171Z,11.6024
2023-03-29T18:40:20.373Z,11.6934
2023-03-29T18:41:20.666Z,11.6715
2023-03-29T18:43:21.011Z,11.7982
2023-03-29T18:44:21.224Z,11.7692
2023-03-29T18:45:21.650Z,11.9100
2023-03-29T18:46:22.110Z,11.8216
2023-03-29T18:47:22.462Z,11.4694
2023-03-29T18:48:22.859Z,11.1821
2023-03-29T18:49:23.072Z,11.4871
2023-03-29T18:50:23.297Z,11.4520
2023-03-29T18:51:23.493Z,11.1823
2023-03-29T18:53:23.794Z,11.0341
2023-03-29T18:54:24.114Z,11.3015
2023-03-29T18:55:24.364Z,11.1511
2023-03-29T18:56:24.595Z,10.8866
2023-03-29T18:57:24.962Z,10.8919
2023-03-29T18:58:25.193Z,12.3292
2023-03-29T18:59:25.458Z,12.3708
2023-03-29T19:00:25.723Z,12.0523
2023-03-29T19:01:25.972Z,12.0520
2023-03-29T19:02:26.263Z,12.3861
2023-03-29T19:03:26.607Z,12.2062
2023-03-29T19:04:27.025Z,12.2509
2023-03-29T19:05:27.340Z,12.2084
2023-03-29T19:06:27.561Z,12.3806
2023-03-29T19:07:27.874Z,12.2225
2023-03-29T19:08:28.229Z,12.3492
2023-03-29T19:09:28.507Z,12.1873
2023-03-29T19:10:28.813Z,12.2208
2023-03-29T19:11:29.176Z,12.1180
2023-03-29T19:12:29.487Z,12.1332
2023-03-29T19:13:29.764Z,11.9325
2023-03-29T19:14:30.078Z,11.5505
2023-03-29T19:15:30.437Z,11.6746
2023-03-29T19:16:30.755Z,11.1832
2023-03-29T19:17:31.074Z,10.8012
2023-03-29T19:18:31.390Z,10.5376
2023-03-29T19:19:31.663Z,10.5113
2023-03-29T19:20:31.922Z,10.4911
2023-03-29T19:21:32.307Z,10.5638
2023-03-29T19:23:32.748Z,10.8737
2023-03-29T19:24:32.977Z,10.7918
2023-03-29T19:25:33.265Z,10.8911
2023-03-29T19:26:33.614Z,10.8790
2023-03-29T19:27:33.885Z,11.0173
2023-03-29T19:28:34.148Z,10.9685
2023-03-29T19:29:34.410Z,11.1947
2023-03-29T19:30:34.697Z,11.2669
2023-03-29T19:31:35.078Z,11.8016
2023-03-29T19:32:35.340Z,11.7267
2023-03-29T19:33:35.612Z,11.7881
2023-03-29T19:34:35.915Z,12.3607
2023-03-29T19:35:36.343Z,12.3920
2023-03-29T19:36:36.589Z,11.9183
2023-03-29T19:37:36.921Z,12.3588
2023-03-29T19:38:37.162Z,12.2489
2023-03-29T19:39:37.459Z,11.9439
2023-03-29T19:40:37.774Z,11.9096
2023-03-29T19:41:39.441Z,11.9046
2023-03-29T19:42:38.526Z,11.8067
2023-03-29T19:43:38.866Z,11.6766
2023-03-29T19:44:39.158Z,11.6999
2023-03-29T19:45:39.432Z,11.5130
2023-03-29T19:46:39.737Z,11.4853
2023-03-29T19:47:40.114Z,11.6206
2023-03-29T19:48:40.454Z,11.4083
2023-03-29T19:49:40.799Z,11.4211
2023-03-29T19:50:41.195Z,11.3429
2023-03-29T19:51:41.520Z,11.2480
2023-03-29T19:52:41.754Z,11.1906
2023-03-29T19:53:42.056Z,11.2446
2023-03-29T19:54:42.357Z,11.3594
2023-03-29T19:55:42.652Z,11.3658
2023-03-29T19:56:43.023Z,11.1461
2023-03-29T19:57:43.393Z,11.1129
2023-03-29T19:58:43.678Z,11.2753
2023-03-29T19:59:44.025Z,11.3335
2023-03-29T20:00:44.285Z,11.5163
2023-03-29T20:01:44.584Z,11.3357
2023-03-29T20:02:44.901Z,11.3323
2023-03-29T20:03:45.326Z,11.3497
2023-03-29T20:04:45.698Z,11.2396
2023-03-29T20:05:46.047Z,11.2253
2023-03-29T20:06:46.400Z,11.1266